Time;durP1;ratioP1;P1;durP2;ratioP2;P2;SDS_P1;SDS_P2;PMS_P1;PMS_P2;Temp;Humidity;BMP_temperature;BMP_pressure;BME280_temperature;BME280_humidity;BME280_pressure;Samples;Min_cycle;Max_cycle;Signal;HPM_P1;HPM_P2
2021/04/16 00:02:05;;;;;;;11.20;7.70;;;;;;;8.79;79.58;98971.98;117216;1209;22855;-70
2021/04/16 00:04:33;;;;;;;12.63;7.53;;;;;;;8.79;80.19;98968.45;117264;1209;22899;-70
2021/04/16 00:07:02;;;;;;;11.60;8.30;;;;;;;8.79;79.71;98976.59;117211;1212;22924;-70
2021/04/16 00:09:30;;;;;;;9.60;7.20;;;;;;;8.79;79.88;98971.17;117252;1209;22837;-70
2021/04/16 00:11:57;;;;;;;10.07;7.87;;;;;;;8.63;79.53;98947.67;117195;1212;23700;-70
2021/04/16 00:14:25;;;;;;;8.65;6.90;;;;;;;8.74;80.17;98965.69;117252;1209;22861;-70
2021/04/16 00:16:52;;;;;;;12.37;7.17;;;;;;;8.74;79.94;98968.40;117205;1209;23631;-70
2021/04/16 00:19:20;;;;;;;11.65;8.00;;;;;;;8.74;79.76;98969.22;117242;1208;23404;-70
2021/04/16 00:21:49;;;;;;;9.20;8.07;;;;;;;8.74;79.50;98971.11;117230;1213;22922;-70
2021/04/16 00:24:18;;;;;;;13.05;8.65;;;;;;;8.72;80.00;98960.51;117173;1209;23869;-71
2021/04/16 00:26:46;;;;;;;9.95;7.80;;;;;;;8.68;79.55;98967.53;117273;1212;22870;-70
2021/04/16 00:29:14;;;;;;;12.15;8.15;;;;;;;8.68;79.76;98963.99;117242;1209;22977;-70
2021/04/16 00:31:50;;;;;;;11.23;7.40;;;;;;;8.66;79.92;98961.53;117197;1212;22949;-70
2021/04/16 00:34:23;;;;;;;8.70;7.20;;;;;;;8.66;80.03;98961.53;117240;1208;22982;-71
2021/04/16 00:36:55;;;;;;;8.17;6.77;;;;;;;8.66;80.14;98964.25;117225;1212;22987;-70
2021/04/16 00:39:24;;;;;;;10.10;6.00;;;;;;;8.65;80.15;98959.92;117197;1212;22846;-70
2021/04/16 00:41:52;;;;;;;8.00;6.30;;;;;;;8.64;80.30;98963.71;117216;1209;22919;-70
2021/04/16 00:44:19;;;;;;;9.13;6.70;;;;;;;8.64;79.62;98961.00;117194;1209;23034;-70
2021/04/16 00:46:48;;;;;;;7.05;5.20;;;;;;;8.64;80.19;98965.61;114513;1212;27602;-71
2021/04/16 00:49:23;;;;;;;7.60;5.50;;;;;;;8.65;80.29;98972.68;117192;1209;22912;-70
2021/04/16 00:52:02;;;;;;;8.00;4.43;;;;;;;8.66;79.76;98963.42;117224;1209;23671;-71
2021/04/16 00:54:37;;;;;;;5.47;4.70;;;;;;;8.65;80.21;98962.64;117226;1209;22958;-70
2021/04/16 00:57:06;;;;;;;5.87;4.60;;;;;;;8.65;80.19;98968.07;117206;1213;22840;-70
2021/04/16 00:59:37;;;;;;;6.95;4.60;;;;;;;8.66;79.70;98966.14;117197;1209;22868;-71
2021/04/16 01:02:04;;;;;;;5.90;4.30;;;;;;;8.65;79.75;98976.22;117216;1209;22913;-71
2021/04/16 01:04:33;;;;;;;5.70;4.60;;;;;;;8.65;79.91;98964.53;117241;1209;22932;-70
2021/04/16 01:07:01;;;;;;;6.20;4.50;;;;;;;8.65;79.99;98968.07;117221;1212;22920;-70
2021/04/16 01:09:29;;;;;;;5.50;4.80;;;;;;;8.62;79.82;98965.86;117106;1209;22953;-71
2021/04/16 01:11:59;;;;;;;4.57;4.17;;;;;;;8.61;79.83;98964.22;117270;1212;23600;-70
2021/04/16 01:14:27;;;;;;;5.10;4.60;;;;;;;8.60;80.08;98965.30;117215;1208;22944;-74
2021/04/16 01:16:55;;;;;;;5.15;4.40;;;;;;;8.59;79.43;98960.13;117240;1209;23078;-74
2021/04/16 01:19:30;;;;;;;5.40;3.77;;;;;;;8.58;79.84;98964.73;117179;1214;23851;-75
2021/04/16 01:22:11;;;;;;;7.25;4.00;;;;;;;8.59;79.51;98962.84;117089;1212;22964;-75
2021/04/16 01:24:39;;;;;;;6.55;4.20;;;;;;;8.60;79.94;98964.48;117235;1209;23753;-74
2021/04/16 01:27:12;;;;;;;5.10;3.95;;;;;;;8.58;80.00;98972.88;117243;1209;23074;-75
2021/04/16 01:29:44;;;;;;;7.95;4.40;;;;;;;8.57;79.98;98954.95;117193;1209;23153;-75
2021/04/16 01:32:32;;;;;;;10.00;4.60;;;;;;;8.57;79.66;98959.56;117264;1209;23572;-74
2021/04/16 01:34:59;;;;;;;5.90;4.30;;;;;;;8.55;79.44;98954.38;117213;1212;22933;-75
2021/04/16 01:37:30;;;;;;;6.00;4.70;;;;;;;8.54;79.64;98960.89;117240;1209;23662;-75
2021/04/16 01:39:57;;;;;;;5.10;4.50;;;;;;;8.55;79.66;98959.81;117216;1212;22821;-75
2021/04/16 01:42:26;;;;;;;6.05;5.00;;;;;;;8.53;79.91;98964.68;117216;1209;22963;-75
2021/04/16 01:44:54;;;;;;;7.75;5.70;;;;;;;8.52;79.60;98963.04;117246;1209;22898;-74
2021/04/16 01:47:21;;;;;;;7.35;5.85;;;;;;;8.52;79.16;98957.61;117266;1209;22864;-74
2021/04/16 01:49:51;;;;;;;6.53;5.57;;;;;;;8.48;79.51;98956.52;117278;1209;22835;-74
2021/04/16 01:52:30;;;;;;;6.35;5.05;;;;;;;8.45;79.14;98960.55;117112;1209;23045;-74
2021/04/16 01:54:58;;;;;;;5.97;4.70;;;;;;;8.43;79.73;98962.70;114676;1209;23638;-74
2021/04/16 01:57:31;;;;;;;8.50;5.30;;;;;;;8.43;80.06;98954.56;114837;1209;23137;-73
2021/04/16 01:59:59;;;;;;;5.60;4.45;;;;;;;8.46;79.45;98953.23;115501;1209;23131;-74
2021/04/16 02:02:31;;;;;;;5.60;4.40;;;;;;;8.45;79.84;98955.13;115852;1209;25558;-74
2021/04/16 02:04:59;;;;;;;6.25;4.35;;;;;;;8.40;79.80;98956.97;114780;1209;23219;-73
2021/04/16 02:07:30;;;;;;;7.20;4.15;;;;;;;8.34;79.19;98955.30;114780;1209;23253;-73
2021/04/16 02:09:57;;;;;;;7.90;4.20;;;;;;;8.30;79.24;98948.70;114882;1209;23518;-74
2021/04/16 02:12:27;;;;;;;5.10;4.15;;;;;;;8.27;79.49;98958.17;117207;1209;23085;-74
2021/04/16 02:14:55;;;;;;;5.85;4.25;;;;;;;8.22;79.58;98947.29;117240;1212;22891;-73
2021/04/16 02:17:26;;;;;;;5.75;4.65;;;;;;;8.17;79.70;98955.37;117268;1209;22915;-73
2021/04/16 02:20:07;;;;;;;5.25;4.05;;;;;;;8.15;79.68;98943.95;117215;1209;22845;-73
2021/04/16 02:22:35;;;;;;;5.30;4.10;;;;;;;8.14;79.62;98956.70;117219;1209;23519;-72
2021/04/16 02:25:03;;;;;;;5.17;4.23;;;;;;;8.13;79.71;98955.05;117273;1209;23087;-73
2021/04/16 02:27:31;;;;;;;6.27;4.90;;;;;;;8.16;79.30;98949.13;117256;1209;22841;-73
2021/04/16 02:29:58;;;;;;;6.55;4.70;;;;;;;8.16;79.44;98951.84;117211;1209;22816;-73
2021/04/16 02:32:26;;;;;;;8.20;4.65;;;;;;;8.19;79.48;98949.69;117231;1209;22944;-73
2021/04/16 02:34:54;;;;;;;7.90;4.45;;;;;;;8.14;79.78;98942.30;117760;1206;24870;-73
2021/04/16 02:37:22;;;;;;;5.15;4.00;;;;;;;8.21;79.83;98956.50;117729;1206;23506;-72
2021/04/16 02:39:50;;;;;;;5.05;4.10;;;;;;;8.25;79.87;98948.64;117769;1209;22947;-73
2021/04/16 02:42:17;;;;;;;4.60;4.10;;;;;;;8.20;79.62;98944.01;117750;1206;25894;-73
2021/04/16 02:44:45;;;;;;;5.30;4.27;;;;;;;8.28;79.22;98948.14;117745;1205;22902;-73
2021/04/16 02:47:13;;;;;;;5.85;4.45;;;;;;;8.29;79.11;98949.78;117606;1206;22877;-73
2021/04/16 02:49:40;;;;;;;7.05;5.00;;;;;;;8.29;79.67;98947.06;117728;1211;22829;-73
2021/04/16 02:52:08;;;;;;;6.40;4.40;;;;;;;8.28;79.41;98945.42;117733;1206;23684;-73
2021/04/16 02:54:36;;;;;;;5.35;4.50;;;;;;;8.28;78.79;98961.70;117702;1206;23070;-73
2021/04/16 02:57:25;;;;;;;9.83;4.88;;;;;;;8.28;78.62;98956.28;117701;1206;24222;-73
2021/04/16 02:59:52;;;;;;;7.25;4.20;;;;;;;8.28;79.52;98953.56;117728;1206;22959;-74
2021/04/16 03:02:20;;;;;;;6.00;4.90;;;;;;;8.28;78.93;98958.99;117794;1206;22922;-73
2021/04/16 03:04:47;;;;;;;5.90;4.15;;;;;;;8.29;79.50;98952.49;117728;1206;22829;-73
2021/04/16 03:07:15;;;;;;;9.05;4.65;;;;;;;8.29;78.79;98949.78;117656;1206;22968;-73
2021/04/16 03:09:43;;;;;;;6.97;4.27;;;;;;;8.28;78.70;98948.14;117720;1212;23898;-73
2021/04/16 03:12:11;;;;;;;5.00;4.15;;;;;;;8.27;78.87;98947.31;117825;1208;23716;-74
2021/04/16 03:14:39;;;;;;;5.33;4.37;;;;;;;8.28;79.38;98953.56;117343;1206;23025;-74
2021/04/16 03:17:06;;;;;;;6.00;4.65;;;;;;;8.30;79.39;98954.13;117651;1206;22874;-74
2021/04/16 03:19:37;;;;;;;4.10;3.70;;;;;;;8.30;78.98;98946.81;117508;1206;22847;-74
2021/04/16 03:22:04;;;;;;;4.55;3.60;;;;;;;8.32;79.47;98952.02;117732;1206;22957;-74
2021/04/16 03:24:32;;;;;;;5.30;4.50;;;;;;;8.32;78.96;98952.84;117803;1206;22847;-74
2021/04/16 03:27:00;;;;;;;8.60;5.07;;;;;;;8.32;78.92;98949.30;117781;1206;24085;-74
2021/04/16 03:29:28;;;;;;;7.50;4.60;;;;;;;8.30;78.63;98952.23;117790;1209;23441;-74
2021/04/16 03:31:55;;;;;;;6.50;4.35;;;;;;;8.30;79.08;98954.13;115425;1209;28030;-74
2021/04/16 03:34:23;;;;;;;5.05;3.90;;;;;;;8.27;79.18;98946.50;117701;1211;22949;-74
2021/04/16 03:36:55;;;;;;;7.30;4.20;;;;;;;8.23;79.18;98954.33;117467;1211;22970;-73
2021/04/16 03:39:23;;;;;;;4.65;4.00;;;;;;;8.21;79.53;98950.25;117728;1209;23544;-73
2021/04/16 03:41:50;;;;;;;5.30;4.00;;;;;;;8.21;78.63;98958.39;117770;1206;22923;-73
2021/04/16 03:44:18;;;;;;;6.25;4.80;;;;;;;8.18;79.22;98957.01;117659;1206;22929;-73
2021/04/16 03:46:46;;;;;;;6.00;4.30;;;;;;;8.14;79.31;98956.70;117760;1206;22902;-74
2021/04/16 03:49:14;;;;;;;6.45;4.70;;;;;;;8.12;78.81;98956.13;117736;1209;22959;-73
2021/04/16 03:51:55;;;;;;;5.50;4.40;;;;;;;8.17;79.66;98963.51;117767;1210;22828;-73
2021/04/16 03:54:23;;;;;;;5.43;4.17;;;;;;;8.21;79.18;98963.83;117811;1206;23005;-73
2021/04/16 03:56:52;;;;;;;9.30;4.15;;;;;;;8.24;78.81;98960.57;117760;1206;22925;-73
2021/04/16 03:59:21;;;;;;;5.40;3.80;;;;;;;8.23;79.09;98958.93;117761;1206;22830;-74
2021/04/16 04:01:49;;;;;;;6.50;4.25;;;;;;;8.16;78.48;98961.87;117614;1212;22842;-74
2021/04/16 04:04:17;;;;;;;5.25;4.40;;;;;;;8.09;79.07;98972.09;114008;1209;23140;-73
2021/04/16 04:06:47;;;;;;;6.40;3.80;;;;;;;8.00;79.20;98960.06;117697;1209;23398;-74
2021/04/16 04:09:15;;;;;;;6.60;4.00;;;;;;;7.99;79.21;98966.56;117753;1206;22968;-73
2021/04/16 04:11:43;;;;;;;6.90;4.00;;;;;;;7.99;79.10;98970.09;117706;1206;23366;-74
2021/04/16 04:14:10;;;;;;;7.75;4.25;;;;;;;7.95;78.51;98973.56;117773;1206;23019;-74
2021/04/16 04:17:00;;;;;;;5.05;3.75;;;;;;;7.91;79.62;98970.56;117794;1206;22916;-73
2021/04/16 04:19:29;;;;;;;4.35;3.30;;;;;;;7.88;78.61;98973.77;117791;1206;22950;-74
2021/04/16 04:21:59;;;;;;;3.90;3.30;;;;;;;7.86;79.13;98966.96;117477;1206;23092;-74
2021/04/16 04:24:27;;;;;;;4.95;3.75;;;;;;;7.86;79.28;98973.20;117749;1206;23014;-74
2021/04/16 04:26:55;;;;;;;5.55;3.90;;;;;;;7.85;79.36;98974.27;117589;1209;22866;-74
2021/04/16 04:29:24;;;;;;;7.10;3.35;;;;;;;7.88;79.36;98975.67;117637;1206;22926;-73
2021/04/16 04:31:51;;;;;;;5.30;3.30;;;;;;;7.91;79.12;98980.59;117739;1209;22916;-73
2021/04/16 04:34:26;;;;;;;6.60;3.50;;;;;;;7.94;79.47;98972.74;117744;1209;22926;-74
2021/04/16 04:36:56;;;;;;;8.80;4.75;;;;;;;7.97;78.83;98977.66;117769;1206;22971;-73
2021/04/16 04:39:26;;;;;;;6.80;3.60;;;;;;;8.01;78.72;98976.09;117774;1209;22982;-73
2021/04/16 04:41:54;;;;;;;4.20;3.20;;;;;;;8.04;78.23;98972.88;117783;1206;23059;-73
2021/04/16 04:44:22;;;;;;;9.80;3.10;;;;;;;8.08;79.04;98978.59;117683;1205;22910;-74
2021/04/16 04:46:50;;;;;;;4.55;3.40;;;;;;;8.12;78.79;98974.30;117733;1206;23000;-73
2021/04/16 04:49:19;;;;;;;7.35;3.40;;;;;;;8.13;78.43;98979.47;117739;1209;22862;-73
2021/04/16 04:51:48;;;;;;;3.85;2.80;;;;;;;8.15;77.79;98969.19;117742;1206;22951;-74
2021/04/16 04:54:16;;;;;;;4.55;3.20;;;;;;;8.17;77.63;98977.08;117698;1209;24797;-74
2021/04/16 04:56:44;;;;;;;3.40;2.65;;;;;;;8.16;78.40;98970.83;117744;1206;22831;-73
2021/04/16 04:59:11;;;;;;;3.80;3.00;;;;;;;8.17;77.82;98968.94;117728;1209;22926;-73
2021/04/16 05:01:39;;;;;;;3.40;3.00;;;;;;;8.15;77.86;98977.33;117800;1211;22835;-74
2021/04/16 05:04:06;;;;;;;5.35;3.80;;;;;;;8.17;77.56;98971.66;117545;1208;23919;-73
2021/04/16 05:06:34;;;;;;;4.55;3.50;;;;;;;8.20;77.54;98963.00;117629;1206;22936;-73
2021/04/16 05:09:02;;;;;;;5.20;3.50;;;;;;;8.22;77.50;98965.47;117529;1206;23565;-74
2021/04/16 05:11:29;;;;;;;4.10;3.15;;;;;;;8.24;77.75;98971.43;117712;1211;23119;-72
2021/04/16 05:13:57;;;;;;;5.10;3.35;;;;;;;8.22;77.93;98970.89;117720;1206;22869;-74
2021/04/16 05:16:26;;;;;;;5.35;3.75;;;;;;;8.24;77.91;98968.72;117718;1206;23018;-74
2021/04/16 05:18:54;;;;;;;8.10;3.85;;;;;;;8.24;77.38;98969.53;117688;1206;22867;-73
2021/04/16 05:21:25;;;;;;;4.75;3.40;;;;;;;8.23;77.77;98961.64;117753;1210;23260;-69
2021/04/16 05:23:53;;;;;;;4.80;3.65;;;;;;;8.22;77.23;98962.75;117688;1206;22964;-70
2021/04/16 05:26:20;;;;;;;4.85;3.50;;;;;;;8.25;77.48;98962.21;117793;1206;22828;-72
2021/04/16 05:28:48;;;;;;;6.90;3.70;;;;;;;8.27;77.56;98966.31;117676;1206;22842;-71
2021/04/16 05:31:15;;;;;;;11.27;4.50;;;;;;;8.29;77.92;98963.34;117688;1206;22974;-71
2021/04/16 05:33:43;;;;;;;13.60;4.55;;;;;;;8.30;77.81;98964.98;117729;1209;23581;-71
2021/04/16 05:36:11;;;;;;;11.10;4.55;;;;;;;8.34;77.28;98968.87;117602;1206;22958;-72
2021/04/16 05:38:38;;;;;;;9.45;5.20;;;;;;;8.37;77.79;98961.00;117723;1206;23006;-71
2021/04/16 05:41:06;;;;;;;7.00;3.65;;;;;;;8.41;77.91;98970.28;117544;1207;22957;-72
2021/04/16 05:43:36;;;;;;;5.25;4.45;;;;;;;8.45;77.41;98973.31;117471;1206;22845;-73
2021/04/16 05:46:04;;;;;;;9.70;4.70;;;;;;;8.46;77.30;98972.23;117610;1206;23885;-73
2021/04/16 05:48:33;;;;;;;5.30;4.50;;;;;;;8.46;76.82;98974.95;117628;1206;22882;-73
2021/04/16 05:51:00;;;;;;;6.80;3.90;;;;;;;8.48;76.91;98970.09;117646;1212;23322;-73
2021/04/16 05:53:28;;;;;;;5.23;4.30;;;;;;;8.49;76.91;98969.02;117699;1206;22986;-73
2021/04/16 05:55:57;;;;;;;6.85;4.55;;;;;;;8.52;77.63;98965.75;117675;1206;22898;-73
2021/04/16 05:58:24;;;;;;;5.25;4.30;;;;;;;8.52;76.94;98968.47;117626;1206;22891;-73
2021/04/16 06:00:52;;;;;;;5.20;4.00;;;;;;;8.54;76.63;98968.22;117642;1206;23627;-71
2021/04/16 06:03:19;;;;;;;6.45;4.35;;;;;;;8.54;76.78;98965.50;117586;1206;22859;-70
2021/04/16 06:05:47;;;;;;;8.15;5.20;;;;;;;8.55;76.74;98970.67;117622;1209;24100;-71
2021/04/16 06:08:18;;;;;;;6.85;4.80;;;;;;;8.55;77.03;98972.57;117678;1206;22898;-72
2021/04/16 06:10:47;;;;;;;4.30;3.70;;;;;;;8.48;77.10;98968.19;117767;1206;23057;-72
2021/04/16 06:13:18;;;;;;;4.90;3.90;;;;;;;8.44;76.97;98977.09;117713;1206;22829;-72
2021/04/16 06:15:47;;;;;;;5.30;4.15;;;;;;;8.36;76.66;98972.97;117680;1206;22940;-72
2021/04/16 06:18:16;;;;;;;6.70;4.65;;;;;;;8.32;77.21;98976.45;117657;1206;23647;-72
2021/04/16 06:20:43;;;;;;;7.35;5.45;;;;;;;8.29;77.74;98969.59;117727;1206;22994;-72
2021/04/16 06:23:11;;;;;;;8.10;5.60;;;;;;;8.30;77.49;98978.56;117696;1209;23034;-70
2021/04/16 06:25:38;;;;;;;6.33;5.50;;;;;;;8.30;77.96;98979.38;117581;1206;22963;-71
2021/04/16 06:28:06;;;;;;;7.00;5.20;;;;;;;8.31;77.24;98978.30;117698;1205;23880;-71
2021/04/16 06:30:34;;;;;;;5.80;3.80;;;;;;;8.32;77.58;98979.98;117769;1206;23459;-72
2021/04/16 06:33:06;;;;;;;5.00;3.85;;;;;;;8.37;77.98;98987.33;117754;1209;22892;-72
2021/04/16 06:35:34;;;;;;;7.80;4.60;;;;;;;8.37;77.21;98990.86;117506;1206;22928;-72
2021/04/16 06:38:02;;;;;;;5.60;4.40;;;;;;;8.40;77.41;98993.07;114505;1207;23130;-72
2021/04/16 06:40:30;;;;;;;4.70;4.30;;;;;;;8.42;77.24;98990.92;117764;1206;22991;-72
2021/04/16 06:42:58;;;;;;;4.70;3.95;;;;;;;8.46;76.94;98985.81;117727;1209;23062;-72
2021/04/16 06:45:29;;;;;;;8.65;3.80;;;;;;;8.46;77.56;98988.52;117732;1205;22806;-72
2021/04/16 06:48:02;;;;;;;5.00;4.30;;;;;;;8.47;77.02;98988.27;117698;1206;22974;-72
2021/04/16 06:50:32;;;;;;;6.37;4.40;;;;;;;8.48;76.73;98992.63;117771;1206;23535;-72
2021/04/16 06:53:09;;;;;;;8.25;5.35;;;;;;;8.50;77.37;98992.37;117765;1209;22881;-72
2021/04/16 06:55:57;;;;;;;10.95;4.95;;;;;;;8.53;76.90;98991.02;117776;1206;22860;-72
2021/04/16 06:58:34;;;;;;;5.93;4.90;;;;;;;8.55;76.96;98989.68;117547;1206;23017;-72
2021/04/16 07:01:24;;;;;;;7.80;4.53;;;;;;;8.57;76.97;98992.14;117671;1206;23947;-72
2021/04/16 07:04:32;;;;;;;5.00;4.30;;;;;;;8.60;76.48;98997.88;117320;1207;22897;-72
2021/04/16 07:07:02;;;;;;;5.58;4.50;;;;;;;8.63;76.79;99000.09;117749;1209;22993;-72
2021/04/16 07:09:32;;;;;;;7.60;4.70;;;;;;;8.66;76.39;99002.27;117677;1206;22871;-72
2021/04/16 07:12:20;;;;;;;6.10;4.55;;;;;;;8.71;76.81;99005.03;117750;1206;22895;-72
2021/04/16 07:14:50;;;;;;;7.90;4.87;;;;;;;8.73;76.17;99008.31;117705;1206;23022;-72
2021/04/16 07:17:39;;;;;;;6.40;4.67;;;;;;;8.76;76.79;99004.27;117465;1206;23810;-72
2021/04/16 07:20:11;;;;;;;8.03;5.63;;;;;;;8.77;76.57;99000.48;117640;1206;22859;-72
2021/04/16 07:22:42;;;;;;;7.17;5.37;;;;;;;8.79;76.62;99003.77;117707;1206;22865;-71
2021/04/16 07:25:24;;;;;;;10.00;5.10;;;;;;;8.81;76.58;98998.86;117517;1211;23035;-72
2021/04/16 07:28:00;;;;;;;6.85;4.85;;;;;;;8.84;75.97;99003.78;117480;1206;23832;-72
2021/04/16 07:30:30;;;;;;;7.13;5.23;;;;;;;8.83;76.21;99000.25;117515;1208;22884;-72
2021/04/16 07:33:00;;;;;;;11.27;6.07;;;;;;;8.85;76.04;99011.67;117740;1206;22827;-71
2021/04/16 07:35:31;;;;;;;11.95;5.40;;;;;;;8.84;75.73;99003.78;117071;1209;23030;-71
2021/04/16 07:38:35;;;;;;;12.65;6.95;;;;;;;8.82;75.42;99011.37;117728;1206;22960;-72
2021/04/16 07:41:18;;;;;;;9.90;6.00;;;;;;;8.81;75.55;99001.58;117718;1209;22950;-72
2021/04/16 07:43:58;;;;;;;9.70;5.85;;;;;;;8.82;75.45;99011.37;117688;1206;23753;-72
2021/04/16 07:46:25;;;;;;;9.50;6.10;;;;;;;8.81;75.46;99005.11;117706;1206;22946;-72
2021/04/16 07:49:09;;;;;;;9.60;7.00;;;;;;;8.82;76.02;99017.62;117763;1206;22862;-71
2021/04/16 07:51:37;;;;;;;12.35;8.55;;;;;;;8.81;75.76;99015.98;117689;1206;22923;-72
2021/04/16 07:54:25;;;;;;;18.00;9.80;;;;;;;8.80;75.71;99016.27;117691;1206;22953;-72
2021/04/16 07:57:21;;;;;;;38.93;20.57;;;;;;;8.78;75.58;99016.52;117666;1206;23080;-72
2021/04/16 07:59:56;;;;;;;28.07;11.73;;;;;;;8.82;76.08;99019.52;117690;1209;22860;-72
2021/04/16 08:02:31;;;;;;;13.20;6.70;;;;;;;8.82;75.65;99019.52;117652;1206;23080;-72
2021/04/16 08:04:59;;;;;;;13.45;7.60;;;;;;;8.84;75.88;99020.91;117695;1206;23680;-72
2021/04/16 08:07:31;;;;;;;6.50;5.40;;;;;;;8.86;75.80;99024.19;117614;1206;22860;-72
2021/04/16 08:09:59;;;;;;;8.60;6.50;;;;;;;8.90;75.43;99018.23;117812;1206;24065;-72
2021/04/16 08:12:30;;;;;;;8.80;5.83;;;;;;;8.92;75.63;99022.34;117746;1206;22858;-72
2021/04/16 08:15:14;;;;;;;8.70;5.80;;;;;;;8.97;75.25;99018.82;117786;1205;22920;-72
2021/04/16 08:17:42;;;;;;;9.50;5.60;;;;;;;9.02;75.98;99010.72;117748;1206;22923;-72
2021/04/16 08:20:31;;;;;;;12.70;6.53;;;;;;;9.05;75.42;99013.75;117799;1206;23696;-72
2021/04/16 08:23:16;;;;;;;10.15;5.40;;;;;;;9.12;75.62;99008.06;117688;1206;22935;-72
2021/04/16 08:25:55;;;;;;;22.97;11.60;;;;;;;9.18;75.52;99013.30;117722;1206;23909;-73
2021/04/16 08:28:37;;;;;;;15.03;7.83;;;;;;;9.18;74.84;99012.47;117513;1206;22877;-73
2021/04/16 08:31:06;;;;;;;8.03;5.20;;;;;;;9.08;74.54;99023.28;117748;1209;22879;-72
2021/04/16 08:33:53;;;;;;;10.10;4.30;;;;;;;8.95;74.15;99018.26;117764;1209;22968;-72
2021/04/16 08:36:38;;;;;;;11.95;5.95;;;;;;;8.88;74.71;99014.95;117468;1206;22837;-72
2021/04/16 08:39:15;;;;;;;10.55;6.45;;;;;;;8.91;75.04;99019.88;117556;1206;22850;-72
2021/04/16 08:41:49;;;;;;;10.73;6.30;;;;;;;8.95;75.24;99020.98;117770;1209;23574;-72
2021/04/16 08:44:17;;;;;;;10.63;6.83;;;;;;;8.97;75.39;99019.64;117621;1206;22990;-72
2021/04/16 08:46:58;;;;;;;15.47;7.60;;;;;;;9.03;75.49;99024.05;117672;1206;22942;-72
2021/04/16 08:49:29;;;;;;;11.43;6.90;;;;;;;9.07;75.71;99029.80;117543;1206;22925;-72
2021/04/16 08:52:01;;;;;;;7.35;5.40;;;;;;;9.12;75.97;99019.76;117449;1206;22837;-73
2021/04/16 08:54:31;;;;;;;10.90;5.35;;;;;;;9.16;75.87;99023.60;117724;1206;22894;-73
2021/04/16 08:56:59;;;;;;;7.43;5.17;;;;;;;9.22;75.26;99021.75;117724;1206;24150;-73
2021/04/16 08:59:28;;;;;;;11.37;6.70;;;;;;;9.29;75.32;99026.95;117754;1206;22879;-73
2021/04/16 09:02:17;;;;;;;8.60;5.57;;;;;;;9.32;75.44;99023.71;117633;1209;23476;-73
2021/04/16 09:04:56;;;;;;;11.03;7.33;;;;;;;9.37;75.47;99026.47;117739;1206;23560;-72
2021/04/16 09:07:29;;;;;;;17.57;8.73;;;;;;;9.38;75.68;99028.91;113677;1209;23134;-72
2021/04/16 09:09:57;;;;;;;13.43;8.83;;;;;;;9.41;75.92;99028.38;113356;1209;23243;-72
2021/04/16 09:12:39;;;;;;;12.83;8.18;;;;;;;9.45;76.01;99028.69;117752;1206;23846;-72
2021/04/16 09:15:19;;;;;;;11.73;8.27;;;;;;;9.50;75.57;99023.29;117836;1206;26728;-72
2021/04/16 09:17:50;;;;;;;22.97;9.00;;;;;;;9.52;75.66;99027.36;117752;1205;22931;-73
2021/04/16 09:20:22;;;;;;;12.30;8.25;;;;;;;9.56;74.94;99028.48;117775;1206;22921;-72
2021/04/16 09:22:59;;;;;;;13.20;9.23;;;;;;;9.57;75.38;99024.68;117681;1204;22922;-73
2021/04/16 09:25:45;;;;;;;13.47;8.53;;;;;;;9.60;75.68;99028.78;117549;1211;22916;-72
2021/04/16 09:28:29;;;;;;;11.73;8.73;;;;;;;9.64;75.69;99023.63;117675;1206;22938;-72
2021/04/16 09:31:02;;;;;;;8.30;7.23;;;;;;;9.68;75.43;99035.61;117836;1209;22815;-72
2021/04/16 09:34:08;;;;;;;10.50;7.10;;;;;;;9.69;75.52;99029.91;117474;1206;23886;-72
2021/04/16 09:36:43;;;;;;;9.38;6.73;;;;;;;9.72;75.96;99034.00;117561;1206;23539;-73
2021/04/16 09:39:14;;;;;;;12.50;9.80;;;;;;;9.76;75.30;99035.94;117707;1209;24876;-72
2021/04/16 09:41:43;;;;;;;12.30;8.13;;;;;;;9.78;75.00;99038.40;117699;1206;22961;-72
2021/04/16 09:44:29;;;;;;;9.50;7.43;;;;;;;9.77;74.94;99034.86;117454;1206;22948;-72
2021/04/16 09:47:04;;;;;;;12.68;7.30;;;;;;;9.80;74.95;99033.52;117647;1206;23466;-73
2021/04/16 09:49:36;;;;;;;9.30;7.10;;;;;;;9.80;74.57;99034.33;117740;1211;22857;-73
2021/04/16 09:52:26;;;;;;;9.83;6.70;;;;;;;9.81;74.39;99037.88;117438;1204;22847;-73
2021/04/16 09:54:54;;;;;;;13.95;7.05;;;;;;;9.80;74.49;99039.78;117665;1206;22961;-73
2021/04/16 09:57:28;;;;;;;10.83;7.50;;;;;;;9.79;74.45;99038.14;117618;1209;22970;-73
2021/04/16 09:59:55;;;;;;;9.53;6.85;;;;;;;9.80;74.30;99041.67;117694;1211;23747;-72
2021/04/16 10:02:34;;;;;;;10.35;7.00;;;;;;;9.80;74.69;99033.52;117532;1206;23731;-73
2021/04/16 10:05:18;;;;;;;11.60;7.35;;;;;;;9.80;74.71;99034.33;117720;1209;22874;-72
2021/04/16 10:07:57;;;;;;;12.07;7.87;;;;;;;9.81;74.71;99040.59;117747;1206;22967;-73
2021/04/16 10:10:35;;;;;;;10.50;7.20;;;;;;;9.81;74.17;99035.16;117776;1206;22839;-73
2021/04/16 10:13:18;;;;;;;10.53;6.73;;;;;;;9.83;74.09;99039.22;117842;1209;23126;-72
2021/04/16 10:15:47;;;;;;;13.50;7.43;;;;;;;9.83;74.32;99036.50;116626;1212;23132;-73
2021/04/16 10:18:27;;;;;;;12.00;6.70;;;;;;;9.82;74.07;99042.20;113393;1209;23125;-73
2021/04/16 10:20:59;;;;;;;11.55;7.70;;;;;;;9.79;74.32;99045.48;117573;1206;22888;-73
2021/04/16 10:23:40;;;;;;;13.13;8.00;;;;;;;9.78;74.37;99041.12;117779;1206;22907;-73
2021/04/16 12:38:36;;;;;;;15.53;11.97;;;;;;;9.81;71.76;99052.27;117245;1209;22797;-70
2021/04/16 12:41:08;;;;;;;15.90;10.10;;;;;;;9.78;72.43;99046.56;117181;1209;22855;-70
2021/04/16 12:43:36;;;;;;;14.43;11.43;;;;;;;9.77;72.56;99045.73;117188;1209;22859;-70
2021/04/16 12:46:03;;;;;;;19.15;12.40;;;;;;;9.79;72.49;99045.48;117259;1208;23462;-70
2021/04/16 12:48:31;;;;;;;28.57;19.53;;;;;;;9.79;72.72;99040.86;117254;1214;23376;-70
2021/04/16 12:51:00;;;;;;;16.00;11.30;;;;;;;9.77;72.52;99042.20;117249;1209;24302;-70
2021/04/16 12:53:27;;;;;;;12.03;9.90;;;;;;;9.75;72.59;99039.73;117236;1209;22849;-70
2021/04/16 12:55:55;;;;;;;12.05;9.10;;;;;;;9.78;72.38;99043.84;117258;1212;23782;-69
2021/04/16 12:58:30;;;;;;;14.80;9.95;;;;;;;9.80;72.47;99042.50;117713;1209;23107;-69
2021/04/16 13:01:01;;;;;;;12.67;10.20;;;;;;;9.85;72.30;99044.41;117667;1205;23753;-69
2021/04/16 13:03:40;;;;;;;15.70;10.43;;;;;;;9.81;72.66;99032.44;117713;1206;23530;-69
2021/04/16 13:06:40;;;;;;;11.90;9.45;;;;;;;9.90;72.81;99041.72;117419;1209;22839;-69
2021/04/16 13:09:10;;;;;;;13.50;9.60;;;;;;;9.94;72.35;99034.67;117676;1211;22965;-69
2021/04/16 13:11:41;;;;;;;18.75;14.15;;;;;;;9.97;72.00;99038.73;117452;1212;23092;-70
2021/04/16 13:14:09;;;;;;;19.60;14.05;;;;;;;9.94;72.23;99037.39;117470;1212;22826;-69
2021/04/16 13:16:37;;;;;;;23.80;16.30;;;;;;;9.91;72.39;99035.19;117445;1208;22851;-69
2021/04/16 13:19:10;;;;;;;21.13;14.23;;;;;;;9.89;72.18;99043.62;117399;1209;22853;-69
2021/04/16 13:21:39;;;;;;;19.97;14.87;;;;;;;9.90;72.70;99041.72;117435;1209;22892;-70
2021/04/16 13:24:08;;;;;;;18.13;13.43;;;;;;;9.89;72.45;99045.52;117419;1211;22863;-69
2021/04/16 13:26:36;;;;;;;27.30;15.50;;;;;;;9.83;72.37;99047.38;115972;1209;23660;-68
2021/04/16 13:29:04;;;;;;;19.30;13.23;;;;;;;9.74;72.27;99048.16;113793;1209;24012;-68
2021/04/16 13:31:34;;;;;;;18.80;14.05;;;;;;;9.66;72.04;99041.34;113587;1209;23124;-69
2021/04/16 13:34:02;;;;;;;16.93;10.50;;;;;;;9.61;72.62;99035.03;117535;1212;22890;-69
2021/04/16 13:36:30;;;;;;;42.10;21.10;;;;;;;9.60;72.92;99036.94;117231;1208;22907;-69
2021/04/16 13:38:59;;;;;;;22.30;14.60;;;;;;;9.60;73.02;99038.84;117402;1208;22915;-69
2021/04/16 13:41:26;;;;;;;14.60;9.93;;;;;;;9.62;73.01;99037.50;117447;1209;23672;-70
2021/04/16 13:43:54;;;;;;;15.40;9.57;;;;;;;9.64;73.27;99037.23;117610;1209;22887;-69
2021/04/16 13:46:23;;;;;;;19.05;10.58;;;;;;;9.62;72.53;99039.39;117783;1206;22813;-69
2021/04/16 13:48:53;;;;;;;46.97;20.87;;;;;;;9.60;73.20;99038.84;117745;1206;23684;-69
2021/04/16 13:51:22;;;;;;;37.60;18.20;;;;;;;9.59;73.04;99043.45;117750;1206;22879;-69
2021/04/16 13:53:50;;;;;;;57.33;24.77;;;;;;;9.55;73.62;99045.88;117678;1209;24472;-69
2021/04/16 13:56:17;;;;;;;121.50;54.20;;;;;;;9.55;73.59;99042.33;115718;1206;23121;-67
2021/04/16 13:58:45;;;;;;;54.35;28.30;;;;;;;9.55;73.90;99040.44;113632;1207;23133;-68
2021/04/16 14:01:12;;;;;;;56.20;27.85;;;;;;;9.53;73.95;99045.31;113404;1206;23134;-68
2021/04/16 14:03:46;;;;;;;44.97;25.33;;;;;;;9.51;74.13;99044.78;113475;1209;23131;-68